sensor_id;sensor_type;location;lat;lon;timestamp;P1;durP1;ratioP1;P2;durP2;ratioP2
10805;SDS011;5455;53.224;6.000;2023-01-01T00:00:41;14.43;;;6.67;;
10805;SDS011;5455;53.224;6.000;2023-01-01T00:03:09;14.57;;;6.60;;
10805;SDS011;5455;53.224;6.000;2023-01-01T00:05:38;13.47;;;6.30;;
10805;SDS011;5455;53.224;6.000;2023-01-01T00:08:06;12.07;;;5.83;;
10805;SDS011;5455;53.224;6.000;2023-01-01T00:10:33;9.93;;;5.07;;
10805;SDS011;5455;53.224;6.000;2023-01-01T00:13:00;17.87;;;6.23;;
10805;SDS011;5455;53.224;6.000;2023-01-01T00:15:28;12.00;;;5.77;;
10805;SDS011;5455;53.224;6.000;2023-01-01T00:17:55;16.80;;;5.57;;
10805;SDS011;5455;53.224;6.000;2023-01-01T00:20:23;10.97;;;5.27;;
10805;SDS011;5455;53.224;6.000;2023-01-01T00:22:58;12.50;;;5.73;;
10805;SDS011;5455;53.224;6.000;2023-01-01T00:25:25;10.83;;;5.80;;
10805;SDS011;5455;53.224;6.000;2023-01-01T00:27:52;11.37;;;6.17;;
10805;SDS011;5455;53.224;6.000;2023-01-01T00:30:19;14.97;;;6.27;;
10805;SDS011;5455;53.224;6.000;2023-01-01T00:32:46;13.60;;;6.90;;
10805;SDS011;5455;53.224;6.000;2023-01-01T00:35:21;11.13;;;5.77;;
10805;SDS011;5455;53.224;6.000;2023-01-01T00:37:49;10.20;;;5.80;;
10805;SDS011;5455;53.224;6.000;2023-01-01T00:40:16;12.83;;;6.37;;
10805;SDS011;5455;53.224;6.000;2023-01-01T00:42:44;14.87;;;7.23;;
10805;SDS011;5455;53.224;6.000;2023-01-01T00:45:11;14.97;;;6.87;;
10805;SDS011;5455;53.224;6.000;2023-01-01T00:47:46;21.77;;;8.13;;
10805;SDS011;5455;53.224;6.000;2023-01-01T00:50:14;15.57;;;7.67;;
10805;SDS011;5455;53.224;6.000;2023-01-01T00:52:41;14.70;;;8.10;;
10805;SDS011;5455;53.224;6.000;2023-01-01T00:55:08;17.47;;;8.67;;
10805;SDS011;5455;53.224;6.000;2023-01-01T00:57:36;16.33;;;7.93;;
10805;SDS011;5455;53.224;6.000;2023-01-01T01:00:03;14.73;;;8.07;;
10805;SDS011;5455;53.224;6.000;2023-01-01T01:02:31;16.80;;;8.87;;
10805;SDS011;5455;53.224;6.000;2023-01-01T01:04:59;14.90;;;8.03;;
10805;SDS011;5455;53.224;6.000;2023-01-01T01:07:27;14.63;;;7.63;;
10805;SDS011;5455;53.224;6.000;2023-01-01T01:09:54;18.83;;;8.43;;
10805;SDS011;5455;53.224;6.000;2023-01-01T01:12:21;17.73;;;8.00;;
10805;SDS011;5455;53.224;6.000;2023-01-01T01:14:48;16.40;;;8.00;;
10805;SDS011;5455;53.224;6.000;2023-01-01T01:17:15;14.93;;;7.13;;
10805;SDS011;5455;53.224;6.000;2023-01-01T01:19:42;7.43;;;4.60;;
10805;SDS011;5455;53.224;6.000;2023-01-01T01:22:09;8.33;;;3.33;;
10805;SDS011;5455;53.224;6.000;2023-01-01T01:24:36;8.43;;;3.43;;
10805;SDS011;5455;53.224;6.000;2023-01-01T01:27:03;8.80;;;3.57;;
10805;SDS011;5455;53.224;6.000;2023-01-01T01:29:30;6.50;;;3.23;;
10805;SDS011;5455;53.224;6.000;2023-01-01T01:31:57;10.83;;;3.83;;
10805;SDS011;5455;53.224;6.000;2023-01-01T01:34:24;8.87;;;2.93;;
10805;SDS011;5455;53.224;6.000;2023-01-01T01:36:55;10.27;;;3.13;;
10805;SDS011;5455;53.224;6.000;2023-01-01T01:39:22;10.43;;;3.30;;
10805;SDS011;5455;53.224;6.000;2023-01-01T01:41:49;10.13;;;3.00;;
10805;SDS011;5455;53.224;6.000;2023-01-01T01:47:28;10.27;;;3.13;;
10805;SDS011;5455;53.224;6.000;2023-01-01T01:50:04;9.53;;;3.30;;
10805;SDS011;5455;53.224;6.000;2023-01-01T01:55:36;6.60;;;3.20;;
10805;SDS011;5455;53.224;6.000;2023-01-01T01:58:05;10.00;;;2.50;;
10805;SDS011;5455;53.224;6.000;2023-01-01T02:00:36;12.70;;;3.60;;
10805;SDS011;5455;53.224;6.000;2023-01-01T02:03:08;10.93;;;2.50;;
10805;SDS011;5455;53.224;6.000;2023-01-01T02:05:38;8.93;;;2.57;;
10805;SDS011;5455;53.224;6.000;2023-01-01T02:08:06;6.23;;;2.90;;
10805;SDS011;5455;53.224;6.000;2023-01-01T02:10:35;6.13;;;2.50;;
10805;SDS011;5455;53.224;6.000;2023-01-01T02:13:02;6.13;;;3.43;;
10805;SDS011;5455;53.224;6.000;2023-01-01T02:15:30;8.83;;;2.73;;
10805;SDS011;5455;53.224;6.000;2023-01-01T02:18:09;11.63;;;2.83;;
10805;SDS011;5455;53.224;6.000;2023-01-01T02:20:49;10.83;;;3.10;;
10805;SDS011;5455;53.224;6.000;2023-01-01T02:23:25;5.77;;;2.07;;
10805;SDS011;5455;53.224;6.000;2023-01-01T02:28:43;8.70;;;3.03;;
10805;SDS011;5455;53.224;6.000;2023-01-01T02:31:27;5.83;;;2.33;;
10805;SDS011;5455;53.224;6.000;2023-01-01T02:34:00;7.57;;;2.00;;
10805;SDS011;5455;53.224;6.000;2023-01-01T02:36:32;9.13;;;2.57;;
10805;SDS011;5455;53.224;6.000;2023-01-01T02:39:02;7.90;;;2.27;;
10805;SDS011;5455;53.224;6.000;2023-01-01T02:41:37;8.03;;;2.87;;
10805;SDS011;5455;53.224;6.000;2023-01-01T02:44:07;7.50;;;2.70;;
10805;SDS011;5455;53.224;6.000;2023-01-01T02:46:34;9.50;;;3.20;;
10805;SDS011;5455;53.224;6.000;2023-01-01T02:49:02;7.00;;;2.33;;
10805;SDS011;5455;53.224;6.000;2023-01-01T02:54:32;9.00;;;2.27;;
10805;SDS011;5455;53.224;6.000;2023-01-01T03:00:06;7.93;;;1.80;;
10805;SDS011;5455;53.224;6.000;2023-01-01T03:03:47;5.83;;;1.97;;
10805;SDS011;5455;53.224;6.000;2023-01-01T03:06:03;8.63;;;1.90;;
10805;SDS011;5455;53.224;6.000;2023-01-01T03:11:24;7.40;;;2.53;;
10805;SDS011;5455;53.224;6.000;2023-01-01T03:14:35;7.43;;;1.73;;
10805;SDS011;5455;53.224;6.000;2023-01-01T03:19:46;3.93;;;1.37;;
10805;SDS011;5455;53.224;6.000;2023-01-01T03:22:16;6.60;;;1.70;;
10805;SDS011;5455;53.224;6.000;2023-01-01T03:24:53;8.40;;;2.13;;
10805;SDS011;5455;53.224;6.000;2023-01-01T03:27:26;7.03;;;1.40;;
10805;SDS011;5455;53.224;6.000;2023-01-01T03:30:00;6.93;;;1.93;;
10805;SDS011;5455;53.224;6.000;2023-01-01T03:32:33;5.90;;;1.70;;
10805;SDS011;5455;53.224;6.000;2023-01-01T03:35:23;5.37;;;1.83;;
10805;SDS011;5455;53.224;6.000;2023-01-01T03:38:14;8.13;;;2.60;;
10805;SDS011;5455;53.224;6.000;2023-01-01T03:40:47;7.00;;;2.20;;
10805;SDS011;5455;53.224;6.000;2023-01-01T03:43:26;6.30;;;1.80;;
10805;SDS011;5455;53.224;6.000;2023-01-01T03:46:16;4.97;;;1.77;;
10805;SDS011;5455;53.224;6.000;2023-01-01T03:48:49;5.17;;;1.60;;
10805;SDS011;5455;53.224;6.000;2023-01-01T03:53:57;8.23;;;1.83;;
10805;SDS011;5455;53.224;6.000;2023-01-01T03:56:40;5.70;;;1.83;;
10805;SDS011;5455;53.224;6.000;2023-01-01T03:59:15;9.93;;;2.17;;
10805;SDS011;5455;53.224;6.000;2023-01-01T04:01:50;6.37;;;1.57;;
10805;SDS011;5455;53.224;6.000;2023-01-01T04:04:25;7.07;;;2.17;;
10805;SDS011;5455;53.224;6.000;2023-01-01T04:06:53;7.00;;;1.97;;
10805;SDS011;5455;53.224;6.000;2023-01-01T04:09:22;7.93;;;2.10;;
10805;SDS011;5455;53.224;6.000;2023-01-01T04:11:56;5.30;;;1.40;;
10805;SDS011;5455;53.224;6.000;2023-01-01T04:14:34;7.33;;;1.73;;
10805;SDS011;5455;53.224;6.000;2023-01-01T04:17:03;5.03;;;1.43;;
10805;SDS011;5455;53.224;6.000;2023-01-01T04:19:32;6.77;;;1.90;;
10805;SDS011;5455;53.224;6.000;2023-01-01T04:21:59;6.90;;;1.60;;
10805;SDS011;5455;53.224;6.000;2023-01-01T04:24:27;7.17;;;2.47;;
10805;SDS011;5455;53.224;6.000;2023-01-01T04:26:54;5.50;;;1.60;;
10805;SDS011;5455;53.224;6.000;2023-01-01T04:29:22;4.97;;;1.30;;
10805;SDS011;5455;53.224;6.000;2023-01-01T04:31:49;6.43;;;1.73;;
10805;SDS011;5455;53.224;6.000;2023-01-01T04:34:16;4.83;;;2.00;;
10805;SDS011;5455;53.224;6.000;2023-01-01T04:36:43;3.50;;;1.27;;
10805;SDS011;5455;53.224;6.000;2023-01-01T04:39:10;5.37;;;1.60;;
10805;SDS011;5455;53.224;6.000;2023-01-01T04:41:37;7.27;;;1.43;;
10805;SDS011;5455;53.224;6.000;2023-01-01T04:44:04;9.87;;;1.77;;
10805;SDS011;5455;53.224;6.000;2023-01-01T04:46:31;6.93;;;1.90;;
10805;SDS011;5455;53.224;6.000;2023-01-01T04:48:58;7.40;;;2.10;;
10805;SDS011;5455;53.224;6.000;2023-01-01T04:51:25;6.80;;;2.20;;
10805;SDS011;5455;53.224;6.000;2023-01-01T04:53:52;4.60;;;1.80;;
10805;SDS011;5455;53.224;6.000;2023-01-01T04:56:19;7.57;;;2.13;;
10805;SDS011;5455;53.224;6.000;2023-01-01T04:58:47;8.47;;;2.30;;
10805;SDS011;5455;53.224;6.000;2023-01-01T05:01:19;10.87;;;2.40;;
10805;SDS011;5455;53.224;6.000;2023-01-01T05:03:50;13.50;;;2.00;;
10805;SDS011;5455;53.224;6.000;2023-01-01T05:06:18;10.27;;;2.40;;
10805;SDS011;5455;53.224;6.000;2023-01-01T05:08:47;8.70;;;2.63;;
10805;SDS011;5455;53.224;6.000;2023-01-01T05:11:16;14.90;;;4.53;;
10805;SDS011;5455;53.224;6.000;2023-01-01T05:13:48;8.33;;;2.60;;
10805;SDS011;5455;53.224;6.000;2023-01-01T05:16:19;11.83;;;3.10;;
10805;SDS011;5455;53.224;6.000;2023-01-01T05:18:48;13.97;;;3.30;;
10805;SDS011;5455;53.224;6.000;2023-01-01T05:21:17;11.00;;;3.13;;
10805;SDS011;5455;53.224;6.000;2023-01-01T05:23:55;8.37;;;2.43;;
10805;SDS011;5455;53.224;6.000;2023-01-01T05:26:23;10.03;;;2.20;;
10805;SDS011;5455;53.224;6.000;2023-01-01T05:28:53;5.90;;;1.57;;
10805;SDS011;5455;53.224;6.000;2023-01-01T05:31:23;12.30;;;2.87;;
10805;SDS011;5455;53.224;6.000;2023-01-01T05:33:51;10.07;;;2.57;;
10805;SDS011;5455;53.224;6.000;2023-01-01T05:36:20;9.40;;;2.17;;
10805;SDS011;5455;53.224;6.000;2023-01-01T05:38:49;10.53;;;2.00;;
10805;SDS011;5455;53.224;6.000;2023-01-01T05:41:18;6.73;;;2.17;;
10805;SDS011;5455;53.224;6.000;2023-01-01T05:43:46;4.37;;;1.77;;
10805;SDS011;5455;53.224;6.000;2023-01-01T05:46:14;5.70;;;1.33;;
10805;SDS011;5455;53.224;6.000;2023-01-01T05:48:44;8.77;;;1.57;;
10805;SDS011;5455;53.224;6.000;2023-01-01T05:51:13;5.57;;;1.23;;
10805;SDS011;5455;53.224;6.000;2023-01-01T05:53:42;5.43;;;1.77;;
10805;SDS011;5455;53.224;6.000;2023-01-01T05:56:12;9.70;;;1.67;;
10805;SDS011;5455;53.224;6.000;2023-01-01T05:58:41;6.23;;;1.37;;
10805;SDS011;5455;53.224;6.000;2023-01-01T06:01:13;10.23;;;2.20;;
10805;SDS011;5455;53.224;6.000;2023-01-01T06:03:46;6.33;;;1.43;;
10805;SDS011;5455;53.224;6.000;2023-01-01T06:06:17;6.77;;;1.37;;
10805;SDS011;5455;53.224;6.000;2023-01-01T06:08:49;8.03;;;1.83;;
10805;SDS011;5455;53.224;6.000;2023-01-01T06:11:21;7.70;;;1.60;;
10805;SDS011;5455;53.224;6.000;2023-01-01T06:13:50;4.90;;;1.63;;
10805;SDS011;5455;53.224;6.000;2023-01-01T06:16:18;10.40;;;1.97;;
10805;SDS011;5455;53.224;6.000;2023-01-01T06:18:45;7.77;;;1.60;;
10805;SDS011;5455;53.224;6.000;2023-01-01T06:21:13;7.60;;;1.70;;
10805;SDS011;5455;53.224;6.000;2023-01-01T06:23:42;7.57;;;1.73;;
10805;SDS011;5455;53.224;6.000;2023-01-01T06:26:23;7.50;;;1.63;;
10805;SDS011;5455;53.224;6.000;2023-01-01T06:28:52;6.90;;;1.13;;
10805;SDS011;5455;53.224;6.000;2023-01-01T06:31:21;8.00;;;1.30;;
10805;SDS011;5455;53.224;6.000;2023-01-01T06:33:49;10.57;;;2.10;;
10805;SDS011;5455;53.224;6.000;2023-01-01T06:36:17;6.97;;;1.73;;
10805;SDS011;5455;53.224;6.000;2023-01-01T06:38:47;8.00;;;1.70;;
10805;SDS011;5455;53.224;6.000;2023-01-01T06:41:17;11.60;;;1.50;;
10805;SDS011;5455;53.224;6.000;2023-01-01T06:43:46;4.97;;;1.17;;
10805;SDS011;5455;53.224;6.000;2023-01-01T06:46:15;6.33;;;1.30;;
10805;SDS011;5455;53.224;6.000;2023-01-01T06:48:44;6.50;;;1.40;;
10805;SDS011;5455;53.224;6.000;2023-01-01T06:51:17;5.53;;;1.40;;
10805;SDS011;5455;53.224;6.000;2023-01-01T06:53:46;5.70;;;1.23;;
10805;SDS011;5455;53.224;6.000;2023-01-01T06:56:14;9.73;;;1.50;;
10805;SDS011;5455;53.224;6.000;2023-01-01T06:58:42;5.87;;;1.43;;
10805;SDS011;5455;53.224;6.000;2023-01-01T07:01:10;6.33;;;1.50;;
10805;SDS011;5455;53.224;6.000;2023-01-01T07:03:43;10.03;;;1.53;;
10805;SDS011;5455;53.224;6.000;2023-01-01T07:06:11;12.67;;;1.87;;
10805;SDS011;5455;53.224;6.000;2023-01-01T07:08:38;10.17;;;1.70;;
10805;SDS011;5455;53.224;6.000;2023-01-01T07:11:05;13.43;;;2.07;;
10805;SDS011;5455;53.224;6.000;2023-01-01T07:13:32;4.93;;;1.40;;
10805;SDS011;5455;53.224;6.000;2023-01-01T07:15:59;7.83;;;1.60;;
10805;SDS011;5455;53.224;6.000;2023-01-01T07:18:27;10.53;;;2.43;;
10805;SDS011;5455;53.224;6.000;2023-01-01T07:20:55;9.80;;;2.07;;
10805;SDS011;5455;53.224;6.000;2023-01-01T07:23:24;7.03;;;1.40;;
10805;SDS011;5455;53.224;6.000;2023-01-01T07:25:52;13.90;;;2.17;;
10805;SDS011;5455;53.224;6.000;2023-01-01T07:28:20;9.10;;;1.70;;
10805;SDS011;5455;53.224;6.000;2023-01-01T07:30:48;8.30;;;1.63;;
10805;SDS011;5455;53.224;6.000;2023-01-01T07:33:16;10.70;;;2.03;;
10805;SDS011;5455;53.224;6.000;2023-01-01T07:35:45;13.43;;;2.00;;
10805;SDS011;5455;53.224;6.000;2023-01-01T07:38:13;7.97;;;1.60;;
10805;SDS011;5455;53.224;6.000;2023-01-01T07:40:41;8.97;;;1.80;;
10805;SDS011;5455;53.224;6.000;2023-01-01T07:43:08;9.80;;;1.80;;
10805;SDS011;5455;53.224;6.000;2023-01-01T07:45:38;10.97;;;2.13;;
10805;SDS011;5455;53.224;6.000;2023-01-01T07:48:06;9.37;;;2.10;;
10805;SDS011;5455;53.224;6.000;2023-01-01T07:50:40;9.13;;;2.13;;
10805;SDS011;5455;53.224;6.000;2023-01-01T07:53:07;6.27;;;1.53;;
10805;SDS011;5455;53.224;6.000;2023-01-01T07:55:34;11.83;;;1.30;;
10805;SDS011;5455;53.224;6.000;2023-01-01T07:58:01;10.43;;;1.80;;
10805;SDS011;5455;53.224;6.000;2023-01-01T08:00:28;12.83;;;1.80;;
10805;SDS011;5455;53.224;6.000;2023-01-01T08:02:56;7.87;;;1.73;;
10805;SDS011;5455;53.224;6.000;2023-01-01T08:05:24;12.43;;;2.27;;
10805;SDS011;5455;53.224;6.000;2023-01-01T08:07:53;13.33;;;1.80;;
10805;SDS011;5455;53.224;6.000;2023-01-01T08:10:20;8.80;;;2.17;;
10805;SDS011;5455;53.224;6.000;2023-01-01T08:12:47;11.87;;;2.23;;
10805;SDS011;5455;53.224;6.000;2023-01-01T08:15:15;11.97;;;2.87;;
10805;SDS011;5455;53.224;6.000;2023-01-01T08:17:42;10.63;;;1.90;;
10805;SDS011;5455;53.224;6.000;2023-01-01T08:20:12;11.60;;;2.40;;
10805;SDS011;5455;53.224;6.000;2023-01-01T08:22:40;12.10;;;2.30;;
10805;SDS011;5455;53.224;6.000;2023-01-01T08:25:07;13.50;;;1.80;;
10805;SDS011;5455;53.224;6.000;2023-01-01T08:27:34;10.67;;;2.20;;
10805;SDS011;5455;53.224;6.000;2023-01-01T08:30:02;14.47;;;2.60;;
10805;SDS011;5455;53.224;6.000;2023-01-01T08:32:29;8.37;;;2.40;;
10805;SDS011;5455;53.224;6.000;2023-01-01T08:34:56;11.90;;;2.60;;
10805;SDS011;5455;53.224;6.000;2023-01-01T08:37:23;12.70;;;2.57;;
10805;SDS011;5455;53.224;6.000;2023-01-01T08:39:52;12.63;;;2.23;;
10805;SDS011;5455;53.224;6.000;2023-01-01T08:42:20;9.40;;;2.00;;
10805;SDS011;5455;53.224;6.000;2023-01-01T08:44:47;12.57;;;2.23;;
10805;SDS011;5455;53.224;6.000;2023-01-01T08:47:15;11.57;;;2.23;;
10805;SDS011;5455;53.224;6.000;2023-01-01T08:49:47;5.00;;;1.53;;
10805;SDS011;5455;53.224;6.000;2023-01-01T08:52:14;12.63;;;1.87;;
10805;SDS011;5455;53.224;6.000;2023-01-01T08:54:42;12.70;;;2.17;;
10805;SDS011;5455;53.224;6.000;2023-01-01T08:57:10;11.90;;;1.90;;
10805;SDS011;5455;53.224;6.000;2023-01-01T08:59:37;10.90;;;2.40;;
10805;SDS011;5455;53.224;6.000;2023-01-01T09:02:04;12.57;;;2.30;;
10805;SDS011;5455;53.224;6.000;2023-01-01T09:04:32;8.63;;;2.17;;
10805;SDS011;5455;53.224;6.000;2023-01-01T09:06:59;14.00;;;2.33;;
10805;SDS011;5455;53.224;6.000;2023-01-01T09:09:26;12.63;;;2.60;;
10805;SDS011;5455;53.224;6.000;2023-01-01T09:11:57;21.23;;;3.10;;
10805;SDS011;5455;53.224;6.000;2023-01-01T09:14:29;18.43;;;2.97;;
10805;SDS011;5455;53.224;6.000;2023-01-01T09:16:57;15.17;;;2.83;;
10805;SDS011;5455;53.224;6.000;2023-01-01T09:19:25;10.90;;;2.27;;
10805;SDS011;5455;53.224;6.000;2023-01-01T09:21:52;13.93;;;2.90;;
10805;SDS011;5455;53.224;6.000;2023-01-01T09:24:19;10.77;;;2.47;;
10805;SDS011;5455;53.224;6.000;2023-01-01T09:26:46;10.43;;;2.30;;
10805;SDS011;5455;53.224;6.000;2023-01-01T09:29:13;10.33;;;2.20;;
10805;SDS011;5455;53.224;6.000;2023-01-01T09:31:44;17.70;;;2.60;;
10805;SDS011;5455;53.224;6.000;2023-01-01T09:34:11;10.30;;;2.10;;
10805;SDS011;5455;53.224;6.000;2023-01-01T09:36:38;10.30;;;2.37;;
10805;SDS011;5455;53.224;6.000;2023-01-01T09:39:06;14.00;;;2.67;;
10805;SDS011;5455;53.224;6.000;2023-01-01T09:41:43;11.17;;;2.23;;
10805;SDS011;5455;53.224;6.000;2023-01-01T09:44:27;16.47;;;1.90;;
10805;SDS011;5455;53.224;6.000;2023-01-01T09:46:59;14.70;;;2.40;;
10805;SDS011;5455;53.224;6.000;2023-01-01T09:49:34;12.83;;;2.60;;
10805;SDS011;5455;53.224;6.000;2023-01-01T09:52:10;11.27;;;2.50;;
10805;SDS011;5455;53.224;6.000;2023-01-01T09:54:42;12.07;;;2.50;;
10805;SDS011;5455;53.224;6.000;2023-01-01T09:57:27;14.83;;;3.03;;
10805;SDS011;5455;53.224;6.000;2023-01-01T09:59:56;10.57;;;2.17;;
10805;SDS011;5455;53.224;6.000;2023-01-01T10:05:30;11.50;;;2.43;;
10805;SDS011;5455;53.224;6.000;2023-01-01T10:10:50;12.73;;;2.87;;
10805;SDS011;5455;53.224;6.000;2023-01-01T10:13:38;10.30;;;2.17;;
10805;SDS011;5455;53.224;6.000;2023-01-01T10:16:11;11.40;;;2.37;;
10805;SDS011;5455;53.224;6.000;2023-01-01T10:18:51;12.70;;;4.13;;
10805;SDS011;5455;53.224;6.000;2023-01-01T10:21:31;11.43;;;2.73;;
10805;SDS011;5455;53.224;6.000;2023-01-01T10:27:03;9.30;;;2.07;;
10805;SDS011;5455;53.224;6.000;2023-01-01T10:29:41;10.97;;;2.50;;
10805;SDS011;5455;53.224;6.000;2023-01-01T10:32:21;12.40;;;2.57;;
10805;SDS011;5455;53.224;6.000;2023-01-01T10:34:52;13.43;;;3.03;;
10805;SDS011;5455;53.224;6.000;2023-01-01T10:37:19;13.97;;;3.23;;
10805;SDS011;5455;53.224;6.000;2023-01-01T10:39:47;12.23;;;2.00;;
10805;SDS011;5455;53.224;6.000;2023-01-01T10:42:14;11.30;;;2.17;;
10805;SDS011;5455;53.224;6.000;2023-01-01T10:44:43;12.60;;;2.40;;
10805;SDS011;5455;53.224;6.000;2023-01-01T10:50:02;9.03;;;2.13;;
10805;SDS011;5455;53.224;6.000;2023-01-01T10:52:34;7.73;;;1.60;;
10805;SDS011;5455;53.224;6.000;2023-01-01T10:55:03;13.40;;;2.20;;
10805;SDS011;5455;53.224;6.000;2023-01-01T10:57:35;12.03;;;2.10;;
10805;SDS011;5455;53.224;6.000;2023-01-01T11:00:08;7.83;;;1.67;;
10805;SDS011;5455;53.224;6.000;2023-01-01T11:02:36;17.93;;;2.17;;
10805;SDS011;5455;53.224;6.000;2023-01-01T11:05:19;11.13;;;2.27;;
10805;SDS011;5455;53.224;6.000;2023-01-01T11:07:48;10.87;;;1.93;;
10805;SDS011;5455;53.224;6.000;2023-01-01T11:10:17;8.87;;;1.67;;
10805;SDS011;5455;53.224;6.000;2023-01-01T11:12:46;9.90;;;2.10;;
10805;SDS011;5455;53.224;6.000;2023-01-01T11:15:36;8.30;;;1.83;;
10805;SDS011;5455;53.224;6.000;2023-01-01T11:18:06;6.23;;;1.80;;
10805;SDS011;5455;53.224;6.000;2023-01-01T11:20:41;9.87;;;2.03;;
10805;SDS011;5455;53.224;6.000;2023-01-01T11:23:16;8.37;;;2.70;;
10805;SDS011;5455;53.224;6.000;2023-01-01T11:26:04;12.27;;;2.00;;
10805;SDS011;5455;53.224;6.000;2023-01-01T11:28:34;10.37;;;2.00;;
10805;SDS011;5455;53.224;6.000;2023-01-01T11:31:19;10.10;;;2.20;;
10805;SDS011;5455;53.224;6.000;2023-01-01T11:33:52;9.43;;;1.47;;
10805;SDS011;5455;53.224;6.000;2023-01-01T11:36:21;12.77;;;1.90;;
10805;SDS011;5455;53.224;6.000;2023-01-01T11:39:06;10.23;;;2.00;;
10805;SDS011;5455;53.224;6.000;2023-01-01T11:41:45;7.70;;;1.87;;
10805;SDS011;5455;53.224;6.000;2023-01-01T11:44:23;12.03;;;3.60;;
10805;SDS011;5455;53.224;6.000;2023-01-01T11:47:01;12.27;;;2.97;;
10805;SDS011;5455;53.224;6.000;2023-01-01T11:49:32;12.67;;;3.70;;
10805;SDS011;5455;53.224;6.000;2023-01-01T11:52:00;13.20;;;4.23;;
10805;SDS011;5455;53.224;6.000;2023-01-01T11:54:46;6.90;;;1.80;;
10805;SDS011;5455;53.224;6.000;2023-01-01T11:57:16;10.43;;;2.37;;
10805;SDS011;5455;53.224;6.000;2023-01-01T11:59:52;9.80;;;1.57;;
10805;SDS011;5455;53.224;6.000;2023-01-01T12:02:31;8.70;;;1.80;;
10805;SDS011;5455;53.224;6.000;2023-01-01T12:05:36;6.33;;;1.77;;
10805;SDS011;5455;53.224;6.000;2023-01-01T12:08:15;10.57;;;2.33;;
10805;SDS011;5455;53.224;6.000;2023-01-01T12:10:53;8.43;;;1.83;;
10805;SDS011;5455;53.224;6.000;2023-01-01T12:13:25;8.80;;;2.10;;
10805;SDS011;5455;53.224;6.000;2023-01-01T12:18:43;5.63;;;1.40;;
10805;SDS011;5455;53.224;6.000;2023-01-01T12:21:15;12.20;;;2.10;;
10805;SDS011;5455;53.224;6.000;2023-01-01T12:23:49;6.40;;;1.50;;
10805;SDS011;5455;53.224;6.000;2023-01-01T12:26:28;10.03;;;2.27;;
10805;SDS011;5455;53.224;6.000;2023-01-01T12:29:11;7.37;;;1.37;;
10805;SDS011;5455;53.224;6.000;2023-01-01T12:32:00;8.80;;;1.97;;
10805;SDS011;5455;53.224;6.000;2023-01-01T12:34:47;10.87;;;2.13;;
10805;SDS011;5455;53.224;6.000;2023-01-01T12:50:49;10.30;;;2.03;;
10805;SDS011;5455;53.224;6.000;2023-01-01T13:01:44;9.53;;;2.07;;
10805;SDS011;5455;53.224;6.000;2023-01-01T13:04:14;8.00;;;1.60;;
10805;SDS011;5455;53.224;6.000;2023-01-01T13:06:55;8.07;;;2.23;;
10805;SDS011;5455;53.224;6.000;2023-01-01T13:09:30;9.20;;;2.20;;
10805;SDS011;5455;53.224;6.000;2023-01-01T13:12:04;7.70;;;1.57;;
10805;SDS011;5455;53.224;6.000;2023-01-01T13:14:38;8.83;;;2.03;;
10805;SDS011;5455;53.224;6.000;2023-01-01T13:17:22;4.77;;;1.33;;
10805;SDS011;5455;53.224;6.000;2023-01-01T13:20:14;9.00;;;2.27;;
10805;SDS011;5455;53.224;6.000;2023-01-01T13:22:42;9.37;;;1.93;;
10805;SDS011;5455;53.224;6.000;2023-01-01T13:38:44;6.03;;;2.33;;
10805;SDS011;5455;53.224;6.000;2023-01-01T13:41:40;11.83;;;2.50;;
10805;SDS011;5455;53.224;6.000;2023-01-01T13:44:18;10.57;;;3.60;;
10805;SDS011;5455;53.224;6.000;2023-01-01T14:04:10;7.37;;;1.77;;
10805;SDS011;5455;53.224;6.000;2023-01-01T14:06:43;7.40;;;2.00;;
10805;SDS011;5455;53.224;6.000;2023-01-01T14:09:16;10.77;;;2.13;;
10805;SDS011;5455;53.224;6.000;2023-01-01T14:11:47;9.27;;;1.93;;
10805;SDS011;5455;53.224;6.000;2023-01-01T14:16:51;5.63;;;1.80;;
10805;SDS011;5455;53.224;6.000;2023-01-01T14:19:19;6.47;;;1.87;;
10805;SDS011;5455;53.224;6.000;2023-01-01T14:21:46;6.37;;;1.73;;
10805;SDS011;5455;53.224;6.000;2023-01-01T14:24:14;6.57;;;2.00;;
10805;SDS011;5455;53.224;6.000;2023-01-01T14:26:44;8.97;;;2.10;;
10805;SDS011;5455;53.224;6.000;2023-01-01T14:29:17;7.37;;;1.97;;
10805;SDS011;5455;53.224;6.000;2023-01-01T14:31:50;4.63;;;1.87;;
10805;SDS011;5455;53.224;6.000;2023-01-01T14:36:52;11.23;;;2.00;;
10805;SDS011;5455;53.224;6.000;2023-01-01T14:39:24;8.57;;;1.63;;
10805;SDS011;5455;53.224;6.000;2023-01-01T14:41:57;11.00;;;1.90;;
10805;SDS011;5455;53.224;6.000;2023-01-01T14:44:35;8.30;;;1.80;;
10805;SDS011;5455;53.224;6.000;2023-01-01T14:47:21;6.83;;;1.60;;
10805;SDS011;5455;53.224;6.000;2023-01-01T14:49:52;9.83;;;2.00;;
10805;SDS011;5455;53.224;6.000;2023-01-01T14:52:27;6.60;;;1.23;;
10805;SDS011;5455;53.224;6.000;2023-01-01T14:54:57;7.50;;;1.70;;
10805;SDS011;5455;53.224;6.000;2023-01-01T14:57:26;6.73;;;2.00;;
10805;SDS011;5455;53.224;6.000;2023-01-01T14:59:56;8.33;;;1.57;;
10805;SDS011;5455;53.224;6.000;2023-01-01T15:02:24;8.03;;;2.10;;
10805;SDS011;5455;53.224;6.000;2023-01-01T15:04:55;8.03;;;1.47;;
10805;SDS011;5455;53.224;6.000;2023-01-01T15:07:27;7.33;;;1.67;;
10805;SDS011;5455;53.224;6.000;2023-01-01T15:09:56;6.97;;;1.60;;
10805;SDS011;5455;53.224;6.000;2023-01-01T15:12:29;7.57;;;1.70;;
10805;SDS011;5455;53.224;6.000;2023-01-01T15:15:00;5.67;;;1.33;;
10805;SDS011;5455;53.224;6.000;2023-01-01T15:17:27;11.53;;;1.90;;
10805;SDS011;5455;53.224;6.000;2023-01-01T15:20:20;5.87;;;1.70;;
10805;SDS011;5455;53.224;6.000;2023-01-01T15:22:49;5.57;;;1.93;;
10805;SDS011;5455;53.224;6.000;2023-01-01T15:25:17;7.10;;;1.83;;
10805;SDS011;5455;53.224;6.000;2023-01-01T15:27:49;10.67;;;2.10;;
10805;SDS011;5455;53.224;6.000;2023-01-01T15:30:22;8.03;;;2.10;;
10805;SDS011;5455;53.224;6.000;2023-01-01T15:32:51;8.80;;;1.83;;
10805;SDS011;5455;53.224;6.000;2023-01-01T15:35:20;6.40;;;1.97;;
10805;SDS011;5455;53.224;6.000;2023-01-01T15:38:44;6.23;;;1.60;;
10805;SDS011;5455;53.224;6.000;2023-01-01T15:40:49;8.57;;;1.63;;
10805;SDS011;5455;53.224;6.000;2023-01-01T15:45:59;9.30;;;1.80;;
10805;SDS011;5455;53.224;6.000;2023-01-01T15:48:50;9.37;;;1.70;;
10805;SDS011;5455;53.224;6.000;2023-01-01T15:51:19;9.20;;;2.07;;
10805;SDS011;5455;53.224;6.000;2023-01-01T15:53:49;5.30;;;1.40;;
10805;SDS011;5455;53.224;6.000;2023-01-01T15:56:21;7.53;;;1.50;;
10805;SDS011;5455;53.224;6.000;2023-01-01T16:01:22;8.77;;;1.80;;
10805;SDS011;5455;53.224;6.000;2023-01-01T16:04:37;6.87;;;1.57;;
10805;SDS011;5455;53.224;6.000;2023-01-01T16:06:43;6.50;;;1.80;;
10805;SDS011;5455;53.224;6.000;2023-01-01T16:09:13;7.37;;;1.47;;
10805;SDS011;5455;53.224;6.000;2023-01-01T16:11:42;6.83;;;1.83;;
10805;SDS011;5455;53.224;6.000;2023-01-01T16:14:10;7.57;;;1.50;;
10805;SDS011;5455;53.224;6.000;2023-01-01T16:16:38;6.93;;;1.60;;
10805;SDS011;5455;53.224;6.000;2023-01-01T16:19:12;5.97;;;1.80;;
10805;SDS011;5455;53.224;6.000;2023-01-01T16:21:42;9.27;;;1.87;;
10805;SDS011;5455;53.224;6.000;2023-01-01T16:24:13;6.27;;;1.30;;
10805;SDS011;5455;53.224;6.000;2023-01-01T16:26:41;5.50;;;1.80;;
10805;SDS011;5455;53.224;6.000;2023-01-01T16:29:08;7.27;;;1.73;;
10805;SDS011;5455;53.224;6.000;2023-01-01T16:31:36;13.17;;;7.87;;
10805;SDS011;5455;53.224;6.000;2023-01-01T16:34:03;10.87;;;4.23;;
10805;SDS011;5455;53.224;6.000;2023-01-01T16:36:31;14.90;;;7.33;;
10805;SDS011;5455;53.224;6.000;2023-01-01T16:38:58;11.33;;;5.60;;
10805;SDS011;5455;53.224;6.000;2023-01-01T16:41:25;20.77;;;7.77;;
10805;SDS011;5455;53.224;6.000;2023-01-01T16:43:56;10.63;;;3.97;;
10805;SDS011;5455;53.224;6.000;2023-01-01T16:46:23;9.00;;;4.33;;
10805;SDS011;5455;53.224;6.000;2023-01-01T16:48:53;14.07;;;4.70;;
10805;SDS011;5455;53.224;6.000;2023-01-01T16:51:25;13.53;;;5.43;;
10805;SDS011;5455;53.224;6.000;2023-01-01T16:53:54;8.50;;;2.30;;
10805;SDS011;5455;53.224;6.000;2023-01-01T16:56:22;9.13;;;2.20;;
10805;SDS011;5455;53.224;6.000;2023-01-01T16:58:49;6.80;;;2.23;;
10805;SDS011;5455;53.224;6.000;2023-01-01T17:01:27;8.73;;;2.17;;